Time;durP1;ratioP1;P1;durP2;ratioP2;P2;SDS_P1;SDS_P2;PMS_P1;PMS_P2;Temp;Humidity;BMP_temperature;BMP_pressure;BME280_temperature;BME280_humidity;BME280_pressure;Samples;Min_cycle;Max_cycle;Signal;HPM_P1;HPM_P2
2023/02/22 00:01:07;;;;;;;4.30;1.92;;;19.00;54.90;;;;;;6268654;28;20056;-64
2023/02/22 00:04:09;;;;;;;4.22;1.95;;;19.00;54.90;;;;;;6268685;28;20032;-64
2023/02/22 00:07:10;;;;;;;4.03;2.03;;;19.00;54.90;;;;;;6268839;28;20028;-64
2023/02/22 00:10:13;;;;;;;3.90;1.95;;;19.00;54.90;;;;;;6268525;28;20520;-64
2023/02/22 00:13:14;;;;;;;4.25;1.90;;;19.00;54.90;;;;;;6268911;28;20029;-65
2023/02/22 00:16:20;;;;;;;3.63;1.85;;;19.00;54.90;;;;;;6268751;28;20061;-64
2023/02/22 00:19:21;;;;;;;3.72;2.00;;;19.00;54.90;;;;;;6269971;28;20033;-65
2023/02/22 00:22:21;;;;;;;4.70;1.75;;;19.00;54.90;;;;;;6273032;28;20437;-64
2023/02/22 00:25:23;;;;;;;4.00;1.83;;;19.00;54.90;;;;;;6273173;28;20528;-64
2023/02/22 00:28:25;;;;;;;3.08;1.70;;;19.00;54.90;;;;;;6273276;28;20025;-64
2023/02/22 00:31:26;;;;;;;3.38;1.65;;;19.00;54.90;;;;;;6271841;28;20032;-64
2023/02/22 00:34:27;;;;;;;4.32;1.70;;;19.00;54.90;;;;;;6272944;28;20033;-64
2023/02/22 00:37:30;;;;;;;4.75;2.00;;;19.00;54.90;;;;;;6273408;28;20017;-64
2023/02/22 00:40:33;;;;;;;3.38;1.48;;;19.00;54.90;;;;;;6272686;28;20032;-64
2023/02/22 00:43:33;;;;;;;3.60;1.75;;;19.00;54.90;;;;;;6272753;28;20021;-64
2023/02/22 00:46:34;;;;;;;3.72;1.70;;;19.00;54.90;;;;;;6271368;28;20389;-64
2023/02/22 00:49:35;;;;;;;3.97;1.90;;;19.00;54.90;;;;;;6272820;28;20385;-64
2023/02/22 00:52:37;;;;;;;4.13;2.20;;;19.00;54.90;;;;;;6271440;28;20059;-64
2023/02/22 00:55:38;;;;;;;3.22;1.60;;;19.00;54.90;;;;;;6272367;28;20025;-64
2023/02/22 00:58:38;;;;;;;3.17;1.55;;;19.00;54.90;;;;;;6272541;28;20071;-64
2023/02/22 01:01:39;;;;;;;3.63;1.80;;;19.00;54.90;;;;;;6272246;28;20032;-64
2023/02/22 01:04:40;;;;;;;3.05;1.70;;;19.00;54.90;;;;;;6272582;28;20482;-63
2023/02/22 01:07:41;;;;;;;2.80;1.73;;;19.00;54.90;;;;;;6271052;28;20539;-64
2023/02/22 01:10:42;;;;;;;3.42;1.98;;;19.00;54.90;;;;;;6272126;28;20033;-64
2023/02/22 01:13:46;;;;;;;4.10;1.63;;;19.00;55.00;;;;;;6270615;28;20021;-64
2023/02/22 01:16:47;;;;;;;3.08;1.52;;;19.00;54.90;;;;;;6270840;28;20029;-64
2023/02/22 01:19:48;;;;;;;3.80;1.73;;;19.00;54.90;;;;;;6271854;28;20750;-64
2023/02/22 01:22:52;;;;;;;3.45;1.80;;;19.00;54.90;;;;;;6272054;28;20055;-64
2023/02/22 01:25:52;;;;;;;3.55;1.70;;;19.00;54.90;;;;;;6271677;28;20017;-64
2023/02/22 01:28:53;;;;;;;2.53;1.30;;;19.00;54.90;;;;;;6271742;28;20025;-64
2023/02/22 01:31:55;;;;;;;3.53;1.83;;;19.00;54.90;;;;;;6269630;28;20541;-64
2023/02/22 01:34:56;;;;;;;3.28;1.63;;;19.00;54.90;;;;;;6271732;28;20017;-64
2023/02/22 01:37:57;;;;;;;2.88;1.73;;;19.00;54.90;;;;;;6271861;28;20024;-64
2023/02/22 01:40:57;;;;;;;2.13;1.23;;;19.00;54.90;;;;;;6270274;28;20118;-64
2023/02/22 01:44:20;;;;;;;2.60;1.38;;;19.00;54.90;;;;;;6271354;28;20025;-64
2023/02/22 01:47:21;;;;;;;3.67;1.50;;;19.00;54.90;;;;;;6269838;28;20091;-64
2023/02/22 01:50:22;;;;;;;2.47;1.33;;;19.00;54.90;;;;;;6269881;28;20090;-64
2023/02/22 01:53:29;;;;;;;2.75;1.42;;;19.00;54.90;;;;;;6271183;28;20397;-63
2023/02/22 01:56:33;;;;;;;1.58;1.17;;;19.00;54.90;;;;;;6271102;28;20020;-64
2023/02/22 01:59:39;;;;;;;2.90;1.40;;;19.00;55.00;;;;;;6270902;28;20052;-64
2023/02/22 02:02:44;;;;;;;3.67;1.48;;;19.00;54.90;;;;;;6269812;28;20025;-64
2023/02/22 02:05:45;;;;;;;2.45;1.15;;;19.00;54.90;;;;;;6270898;28;20021;-64
2023/02/22 02:09:09;;;;;;;1.95;1.30;;;19.00;54.90;;;;;;6270971;28;20052;-64
2023/02/22 02:12:12;;;;;;;3.05;1.33;;;19.00;54.90;;;;;;6269585;28;20059;-64
2023/02/22 02:15:22;;;;;;;3.63;1.60;;;19.00;55.00;;;;;;6270628;28;20021;-64
2023/02/22 02:18:24;;;;;;;2.30;1.20;;;19.00;54.90;;;;;;6270540;28;20021;-64
2023/02/22 02:21:40;;;;;;;2.25;1.27;;;19.00;55.00;;;;;;6270507;28;20044;-64
2023/02/22 02:24:59;;;;;;;1.88;1.20;;;19.00;55.00;;;;;;6270324;28;20013;-65
2023/02/22 02:28:42;;;;;;;2.67;1.27;;;19.00;55.00;;;;;;6270328;28;20021;-64
2023/02/22 02:32:26;;;;;;;3.47;1.65;;;19.00;54.90;;;;;;6270143;28;20028;-64
2023/02/22 02:35:36;;;;;;;3.00;1.23;;;19.00;55.00;;;;;;6268839;28;20252;-64
2023/02/22 02:39:11;;;;;;;3.75;1.52;;;19.00;55.00;;;;;;6269964;28;20025;-64
2023/02/22 02:42:17;;;;;;;2.80;1.43;;;19.00;55.60;;;;;;6269437;28;20032;-64
2023/02/22 02:45:25;;;;;;;2.33;1.27;;;19.00;54.90;;;;;;6270093;28;20255;-64
2023/02/22 02:48:27;;;;;;;3.45;1.40;;;19.00;55.00;;;;;;6269817;28;20560;-64
2023/02/22 02:51:32;;;;;;;2.00;1.30;;;19.00;55.00;;;;;;6268130;28;20029;-64
2023/02/22 02:54:35;;;;;;;;;;;19.00;55.00;;;;;;6269930;28;20027;-64
2023/02/22 02:57:40;;;;;;;2.20;1.30;;;19.00;55.00;;;;;;6268169;28;19912;-63
2023/02/22 03:00:41;;;;;;;1.90;1.20;;;19.00;55.00;;;;;;6268127;28;20021;-64
2023/02/22 03:04:04;;;;;;;3.15;1.40;;;18.90;54.90;;;;;;6269878;28;20082;-64
2023/02/22 03:07:31;;;;;;;3.35;1.40;;;19.00;55.00;;;;;;6269464;28;20025;-64
2023/02/22 03:10:36;;;;;;;2.35;1.20;;;19.00;55.00;;;;;;6269096;28;20608;-64
2023/02/22 03:14:19;;;;;;;2.70;1.33;;;19.00;55.00;;;;;;6269558;28;20104;-64
2023/02/22 03:17:31;;;;;;;3.08;1.40;;;19.00;55.00;;;;;;6266093;28;20029;-64
2023/02/22 03:20:47;;;;;;;1.48;1.00;;;19.00;55.00;;;;;;6269134;28;20044;-64
2023/02/22 03:24:08;;;;;;;2.58;1.30;;;19.00;55.70;;;;;;6269294;28;20435;-63
2023/02/22 03:27:20;;;;;;;2.08;1.10;;;19.00;55.00;;;;;;6268918;28;20047;-63
2023/02/22 03:30:36;;;;;;;1.75;1.10;;;19.00;55.00;;;;;;6267938;28;20025;-64
2023/02/22 03:34:01;;;;;;;1.60;1.15;;;19.00;55.00;;;;;;6269297;28;20532;-63
2023/02/22 03:37:07;;;;;;;3.05;1.10;;;19.00;55.00;;;;;;6269092;28;20040;-64
2023/02/22 03:40:12;;;;;;;2.25;1.40;;;18.90;54.90;;;;;;6267497;28;20051;-64
2023/02/22 03:43:17;;;;;;;1.42;0.90;;;19.00;55.00;;;;;;6267698;28;20017;-64
2023/02/22 03:46:18;;;;;;;2.55;1.20;;;18.90;54.90;;;;;;6269116;28;20437;-64
2023/02/22 03:49:31;;;;;;;2.08;0.98;;;19.00;54.90;;;;;;6268830;28;20040;-64
2023/02/22 03:52:34;;;;;;;2.75;1.20;;;19.00;55.00;;;;;;6268023;28;20466;-64
2023/02/22 03:55:35;;;;;;;1.48;1.00;;;18.90;54.90;;;;;;6274022;28;20083;-64
2023/02/22 03:58:37;;;;;;;2.88;1.20;;;18.90;54.90;;;;;;6272573;28;20033;-64
2023/02/22 04:01:38;;;;;;;1.60;1.00;;;19.00;55.00;;;;;;6272589;28;20036;-63
2023/02/22 04:04:38;;;;;;;1.40;0.93;;;19.00;55.00;;;;;;6273778;28;20358;-64
2023/02/22 04:07:40;;;;;;;2.15;1.30;;;19.00;55.00;;;;;;6273439;28;20514;-63
2023/02/22 04:10:41;;;;;;;2.33;1.20;;;19.00;55.00;;;;;;6273468;28;20056;-64
2023/02/22 04:13:42;;;;;;;2.13;1.30;;;19.00;55.00;;;;;;6273345;28;20029;-63
2023/02/22 04:16:42;;;;;;;2.15;1.10;;;19.00;55.00;;;;;;6273278;28;20411;-63
2023/02/22 04:19:44;;;;;;;1.70;1.05;;;19.00;55.00;;;;;;6271743;28;20156;-64
2023/02/22 04:22:46;;;;;;;1.42;0.82;;;19.00;55.00;;;;;;6273173;28;20036;-64
2023/02/22 04:25:46;;;;;;;2.13;1.10;;;19.00;55.00;;;;;;6273244;28;20070;-64
2023/02/22 04:28:47;;;;;;;1.67;0.98;;;19.00;55.00;;;;;;6271827;28;20029;-64
2023/02/22 04:31:48;;;;;;;2.50;1.13;;;19.00;55.00;;;;;;6271917;28;20021;-63
2023/02/22 04:34:48;;;;;;;1.42;0.85;;;19.00;55.00;;;;;;6272987;28;20529;-65
2023/02/22 04:37:49;;;;;;;1.88;1.02;;;19.00;55.00;;;;;;6272973;28;20558;-64
2023/02/22 04:40:50;;;;;;;1.90;0.98;;;18.90;54.90;;;;;;6272824;28;20075;-64
2023/02/22 04:43:51;;;;;;;2.53;1.20;;;19.00;55.70;;;;;;6271230;28;20538;-64
2023/02/22 04:46:51;;;;;;;1.90;1.00;;;19.00;55.00;;;;;;6272559;28;20032;-64
2023/02/22 04:49:52;;;;;;;1.67;0.82;;;18.90;54.90;;;;;;6272504;28;20025;-64
2023/02/22 04:52:53;;;;;;;1.70;1.00;;;18.90;54.90;;;;;;6272552;28;20033;-63
2023/02/22 04:55:53;;;;;;;2.85;1.00;;;19.00;55.00;;;;;;6271013;28;20029;-63
2023/02/22 04:58:54;;;;;;;2.28;1.13;;;18.90;54.90;;;;;;6272540;28;20097;-64
2023/02/22 05:01:56;;;;;;;1.85;0.93;;;19.00;55.00;;;;;;6272053;28;20104;-64
2023/02/22 05:04:57;;;;;;;2.15;1.27;;;18.90;54.90;;;;;;6271577;28;20025;-63
2023/02/22 05:07:57;;;;;;;1.70;0.95;;;19.00;55.00;;;;;;6270912;28;20025;-64
2023/02/22 05:10:58;;;;;;;1.15;0.90;;;19.00;55.00;;;;;;6272182;28;20569;-64
2023/02/22 05:13:59;;;;;;;3.83;1.17;;;18.90;54.90;;;;;;6272283;28;20529;-64
2023/02/22 05:17:00;;;;;;;2.03;0.88;;;19.00;55.00;;;;;;6272125;28;20025;-64
2023/02/22 05:20:03;;;;;;;1.95;0.93;;;19.00;55.00;;;;;;6271747;28;20087;-64
2023/02/22 05:23:04;;;;;;;1.88;1.20;;;19.00;55.00;;;;;;6271783;28;20029;-64
2023/02/22 05:26:05;;;;;;;1.50;0.93;;;19.00;55.00;;;;;;6271740;28;20025;-64
2023/02/22 05:29:06;;;;;;;2.42;0.98;;;19.00;55.00;;;;;;6271882;28;20021;-64
2023/02/22 05:32:06;;;;;;;2.78;1.20;;;19.00;54.90;;;;;;6271394;28;20577;-64
2023/02/22 05:35:07;;;;;;;1.30;0.82;;;19.00;54.90;;;;;;6271751;28;20037;-64
2023/02/22 05:38:11;;;;;;;1.52;0.88;;;19.00;54.90;;;;;;6271388;28;20028;-64
2023/02/22 05:41:12;;;;;;;2.13;1.10;;;19.00;55.00;;;;;;6271320;28;20373;-64
2023/02/22 05:44:13;;;;;;;1.10;0.70;;;19.00;54.90;;;;;;6271360;28;20017;-64
2023/02/22 05:47:14;;;;;;;2.55;0.95;;;19.00;54.90;;;;;;6271342;28;20021;-64
2023/02/22 05:50:15;;;;;;;2.10;0.80;;;19.00;55.00;;;;;;6269491;28;20021;-64
2023/02/22 05:53:16;;;;;;;2.25;1.10;;;19.00;54.90;;;;;;6269682;28;20022;-63
2023/02/22 05:56:25;;;;;;;1.88;0.90;;;19.00;55.00;;;;;;6270494;28;20060;-64
2023/02/22 05:59:26;;;;;;;1.33;0.80;;;19.00;54.90;;;;;;6269483;28;20371;-64
2023/02/22 06:02:27;;;;;;;4.03;1.00;;;19.00;55.00;;;;;;6268144;28;20053;-64
2023/02/22 06:05:28;;;;;;;1.55;0.93;;;19.00;55.00;;;;;;6269502;28;20033;-64
2023/02/22 06:08:29;;;;;;;1.75;1.08;;;19.00;55.00;;;;;;6268899;28;20358;-65
2023/02/22 06:11:30;;;;;;;1.80;0.98;;;19.00;55.00;;;;;;6270063;28;20029;-63
2023/02/22 06:14:30;;;;;;;1.67;0.93;;;19.00;54.90;;;;;;6267883;28;20028;-64
2023/02/22 06:17:31;;;;;;;1.85;1.00;;;19.00;55.00;;;;;;6269890;28;20021;-64
2023/02/22 06:20:33;;;;;;;1.73;0.88;;;19.00;55.00;;;;;;6269762;28;20045;-64
2023/02/22 06:23:34;;;;;;;1.75;0.90;;;19.00;55.00;;;;;;6269751;28;20029;-66
2023/02/22 06:26:35;;;;;;;2.40;1.27;;;19.00;55.00;;;;;;6268387;28;20016;-64
2023/02/22 06:29:35;;;;;;;2.33;0.98;;;19.00;54.90;;;;;;6269807;28;20048;-64
2023/02/22 06:32:36;;;;;;;1.58;0.88;;;19.00;55.00;;;;;;6269633;28;20383;-64
2023/02/22 06:35:37;;;;;;;2.30;0.82;;;19.00;55.00;;;;;;6269317;28;20029;-65
2023/02/22 06:38:37;;;;;;;2.40;1.00;;;19.00;55.00;;;;;;6269614;28;20633;-65
2023/02/22 06:41:39;;;;;;;2.28;0.90;;;19.00;55.00;;;;;;6269217;28;20083;-65
2023/02/22 06:44:40;;;;;;;7.63;1.30;;;19.00;55.00;;;;;;6269417;28;20385;-65
2023/02/22 06:47:41;;;;;;;2.35;0.90;;;19.00;54.70;;;;;;6268754;28;20044;-65
2023/02/22 06:50:41;;;;;;;1.58;0.80;;;19.00;54.80;;;;;;6267934;28;20079;-65
2023/02/22 06:53:42;;;;;;;1.23;0.80;;;19.00;54.90;;;;;;6268816;28;20079;-65
2023/02/22 06:56:43;;;;;;;2.42;0.93;;;19.00;55.00;;;;;;6269168;28;20029;-66
2023/02/22 06:59:44;;;;;;;2.65;1.02;;;19.00;54.90;;;;;;6268298;28;20040;-65
2023/02/22 07:02:47;;;;;;;1.92;0.88;;;19.00;54.90;;;;;;6270785;28;20029;-65
2023/02/22 07:05:47;;;;;;;2.67;1.20;;;19.00;54.90;;;;;;6271021;28;20108;-68
2023/02/22 07:08:48;;;;;;;1.67;0.82;;;19.00;54.90;;;;;;6270945;28;20043;-68
2023/02/22 07:11:49;;;;;;;1.98;1.00;;;19.00;54.90;;;;;;6270956;28;20385;-68
2023/02/22 07:14:55;;;;;;;2.42;0.82;;;19.00;54.90;;;;;;6271083;28;20029;-68
2023/02/22 07:17:56;;;;;;;2.20;1.00;;;19.00;54.90;;;;;;6270861;28;20850;-68
2023/02/22 07:20:57;;;;;;;4.32;1.63;;;19.00;54.90;;;;;;6270975;28;20389;-68
2023/02/22 07:23:58;;;;;;;3.85;1.30;;;19.00;55.00;;;;;;6271289;28;20111;-67
2023/02/22 07:27:00;;;;;;;2.47;0.90;;;19.10;55.10;;;;;;6269547;28;20025;-67
2023/02/22 07:30:01;;;;;;;2.03;1.10;;;19.10;54.90;;;;;;6271010;28;20100;-67
2023/02/22 07:33:04;;;;;;;4.10;1.30;;;19.00;54.90;;;;;;6270925;28;20469;-67
2023/02/22 07:36:05;;;;;;;4.22;1.20;;;19.10;55.00;;;;;;6271412;28;20470;-66
2023/02/22 07:39:07;;;;;;;1.88;1.05;;;19.00;55.00;;;;;;6270172;28;20497;-66
2023/02/22 07:42:08;;;;;;;3.25;1.20;;;19.00;55.00;;;;;;6270148;28;20029;-66
2023/02/22 07:45:09;;;;;;;3.60;1.20;;;19.10;55.10;;;;;;6271173;28;20092;-66
2023/02/22 07:48:11;;;;;;;2.75;1.27;;;19.00;55.00;;;;;;6269988;28;20039;-66
2023/02/22 07:51:16;;;;;;;3.33;1.55;;;19.00;55.00;;;;;;6271246;28;20429;-66
2023/02/22 07:54:17;;;;;;;6.15;1.45;;;19.00;55.00;;;;;;6271264;28;20025;-66
2023/02/22 07:57:18;;;;;;;2.42;1.15;;;19.00;54.90;;;;;;6271020;28;20047;-66
2023/02/22 08:00:24;;;;;;;2.47;1.20;;;19.10;55.10;;;;;;6270950;28;20081;-66
2023/02/22 08:03:25;;;;;;;2.47;1.23;;;19.00;55.00;;;;;;6271072;28;20024;-66
2023/02/22 08:06:27;;;;;;;4.40;1.30;;;19.10;55.10;;;;;;6269741;28;20021;-65
2023/02/22 08:09:27;;;;;;;1.70;0.93;;;19.00;55.00;;;;;;6271043;28;20501;-66
2023/02/22 08:12:28;;;;;;;2.05;1.08;;;19.00;55.00;;;;;;6271163;28;20099;-68
2023/02/22 08:15:36;;;;;;;3.00;1.35;;;19.00;55.00;;;;;;6269634;28;20025;-66
2023/02/22 08:18:37;;;;;;;2.25;1.15;;;19.00;55.00;;;;;;6270736;28;20029;-66
2023/02/22 08:21:38;;;;;;;2.83;1.20;;;19.00;55.00;;;;;;6270974;28;20367;-66
2023/02/22 08:24:39;;;;;;;3.00;1.05;;;19.00;54.90;;;;;;6270702;28;20052;-66
2023/02/22 08:27:40;;;;;;;2.53;1.15;;;19.00;55.00;;;;;;6271043;28;20013;-66
2023/02/22 08:30:42;;;;;;;2.47;1.13;;;19.00;55.00;;;;;;6270643;28;20021;-66
2023/02/22 08:33:46;;;;;;;2.10;1.00;;;19.00;55.00;;;;;;6270683;28;20386;-66
2023/02/22 08:36:48;;;;;;;2.40;1.02;;;19.00;55.00;;;;;;6270566;28;20039;-66
2023/02/22 08:39:49;;;;;;;3.47;1.30;;;19.00;55.00;;;;;;6271369;28;20032;-66
2023/02/22 08:42:50;;;;;;;2.63;1.20;;;19.00;55.00;;;;;;6275089;28;20725;-66
2023/02/22 08:45:51;;;;;;;2.38;1.00;;;19.00;55.00;;;;;;6275232;28;20498;-66
2023/02/22 08:48:52;;;;;;;2.60;1.23;;;19.10;55.10;;;;;;6274900;28;20029;-66
2023/02/22 08:51:53;;;;;;;2.08;1.20;;;19.00;55.00;;;;;;6273900;28;20067;-66
2023/02/22 08:54:54;;;;;;;2.30;0.82;;;19.00;55.00;;;;;;6274660;28;20031;-66
2023/02/22 08:57:55;;;;;;;2.83;1.23;;;19.00;55.00;;;;;;6273722;28;20115;-66
2023/02/22 09:00:56;;;;;;;3.40;1.20;;;19.10;55.10;;;;;;6274730;28;20021;-66
2023/02/22 09:03:57;;;;;;;2.50;1.45;;;19.00;54.90;;;;;;6274827;28;20493;-66
2023/02/22 09:06:58;;;;;;;2.22;1.10;;;19.00;55.00;;;;;;6274773;28;20032;-66
2023/02/22 09:09:58;;;;;;;2.33;0.98;;;19.10;55.00;;;;;;6272955;28;20025;-66
2023/02/22 09:13:01;;;;;;;3.53;1.30;;;19.00;55.00;;;;;;6273757;28;20619;-66
2023/02/22 09:16:02;;;;;;;2.28;1.23;;;19.10;55.10;;;;;;6274393;28;20104;-66
2023/02/22 09:19:03;;;;;;;2.05;1.13;;;19.10;55.10;;;;;;6273966;28;20041;-66
2023/02/22 09:22:03;;;;;;;3.15;1.38;;;19.10;55.00;;;;;;6274191;28;20036;-66
2023/02/22 09:25:05;;;;;;;3.20;1.10;;;19.00;54.90;;;;;;6273924;28;20386;-66
2023/02/22 09:28:06;;;;;;;2.05;1.00;;;19.10;55.00;;;;;;6274022;28;20017;-66
2023/02/22 09:31:07;;;;;;;3.70;1.33;;;19.10;55.00;;;;;;6273849;28;20036;-66
2023/02/22 09:34:14;;;;;;;1.42;0.90;;;19.10;55.00;;;;;;6273854;28;20028;-66
2023/02/22 09:37:16;;;;;;;4.20;1.60;;;19.00;54.90;;;;;;6273993;28;20021;-66
2023/02/22 09:40:23;;;;;;;2.63;1.15;;;19.00;54.90;;;;;;6272347;28;20025;-66
2023/02/22 09:43:39;;;;;;;2.53;1.13;;;19.00;54.90;;;;;;6273925;28;20021;-66
2023/02/22 09:46:44;;;;;;;3.35;1.33;;;19.10;55.00;;;;;;6273695;28;20053;-66
2023/02/22 09:49:56;;;;;;;;;;;19.00;54.90;;;;;;6274122;28;20055;-66
2023/02/22 09:53:40;;;;;;;2.28;1.02;;;19.00;54.90;;;;;;6273266;28;19908;-66
2023/02/22 09:56:42;;;;;;;3.25;1.27;;;19.00;54.90;;;;;;6273231;28;20025;-66
2023/02/22 09:59:59;;;;;;;2.03;1.00;;;19.10;55.00;;;;;;6272989;28;20083;-66
2023/02/22 10:03:06;;;;;;;4.90;1.52;;;19.00;54.90;;;;;;6273035;28;20072;-66
2023/02/22 10:06:13;;;;;;;2.28;1.15;;;19.00;54.90;;;;;;6273257;28;20478;-66
2023/02/22 10:09:14;;;;;;;2.92;1.27;;;19.00;54.90;;;;;;6267644;28;20043;-66
2023/02/22 10:12:29;;;;;;;3.47;1.15;;;19.00;54.90;;;;;;6271277;28;20036;-65
2023/02/22 10:15:33;;;;;;;2.53;1.05;;;19.00;54.90;;;;;;6272466;28;20113;-66
2023/02/22 10:18:46;;;;;;;3.00;1.30;;;19.00;54.90;;;;;;6272173;28;20080;-66
2023/02/22 10:22:29;;;;;;;2.85;1.48;;;19.00;54.90;;;;;;6271657;28;20059;-67
2023/02/22 10:25:36;;;;;;;1.83;0.93;;;19.10;55.30;;;;;;6270570;28;20033;-67
2023/02/22 10:28:48;;;;;;;2.97;1.30;;;19.20;55.10;;;;;;6270124;28;20028;-66
2023/02/22 10:32:02;;;;;;;6.25;1.20;;;19.30;54.80;;;;;;6271955;28;20077;-66
2023/02/22 10:35:09;;;;;;;5.13;1.52;;;19.40;54.40;;;;;;6270009;28;20060;-66
2023/02/22 10:38:11;;;;;;;14.00;1.73;;;19.50;54.50;;;;;;6271767;28;20363;-67
2023/02/22 10:41:29;;;;;;;4.50;1.58;;;19.40;54.30;;;;;;6272013;28;20025;-67
2023/02/22 10:44:29;;;;;;;4.90;1.65;;;19.50;54.30;;;;;;6270891;28;20082;-68
2023/02/22 10:47:31;;;;;;;2.92;1.40;;;19.50;54.10;;;;;;6271527;28;20025;-67
2023/02/22 10:50:33;;;;;;;6.80;2.10;;;19.70;53.90;;;;;;6271307;28;20023;-68
2023/02/22 10:53:37;;;;;;;11.88;1.70;;;19.80;54.00;;;;;;6271369;28;20024;-67
2023/02/22 10:56:47;;;;;;;3.40;1.80;;;19.80;53.60;;;;;;6271316;28;20018;-67
2023/02/22 10:59:50;;;;;;;5.93;2.30;;;19.80;53.80;;;;;;6271132;28;20051;-67
2023/02/22 11:03:22;;;;;;;5.38;2.15;;;19.80;53.90;;;;;;6269473;28;20025;-67
2023/02/22 11:06:23;;;;;;;8.82;2.10;;;19.70;53.80;;;;;;6271208;28;20064;-67
2023/02/22 11:09:26;;;;;;;7.65;2.20;;;19.80;53.80;;;;;;6269777;28;20535;-68
2023/02/22 11:12:36;;;;;;;13.15;2.83;;;19.80;53.60;;;;;;6271255;28;20028;-68
2023/02/22 11:15:39;;;;;;;8.40;2.20;;;19.90;53.60;;;;;;6271302;28;20032;-68
2023/02/22 11:18:40;;;;;;;11.48;2.38;;;20.00;53.30;;;;;;6269431;28;20481;-68
2023/02/22 11:21:42;;;;;;;9.55;2.65;;;20.00;53.40;;;;;;6270905;28;20120;-67
2023/02/22 11:24:54;;;;;;;12.82;2.75;;;20.10;53.50;;;;;;6271055;28;20179;-67
2023/02/22 11:28:13;;;;;;;8.63;3.00;;;20.00;53.40;;;;;;6271354;28;20017;-67
2023/02/22 11:31:24;;;;;;;12.75;2.60;;;20.00;53.40;;;;;;6269871;28;20060;-68
2023/02/22 11:34:38;;;;;;;8.38;2.78;;;20.10;53.20;;;;;;6270913;28;20096;-68
2023/02/22 11:37:39;;;;;;;6.60;3.05;;;20.10;53.60;;;;;;6271306;28;20462;-68
2023/02/22 11:40:39;;;;;;;7.00;1.92;;;20.00;53.70;;;;;;6270859;28;20032;-68
2023/02/22 11:43:42;;;;;;;7.45;2.40;;;19.90;53.70;;;;;;6271381;28;20523;-67
2023/02/22 11:46:43;;;;;;;7.95;2.50;;;19.80;54.00;;;;;;6271166;28;20032;-68
2023/02/22 11:49:45;;;;;;;9.73;2.75;;;19.80;54.10;;;;;;6271189;28;20021;-68
2023/02/22 11:52:52;;;;;;;9.57;3.10;;;19.70;54.10;;;;;;6270915;28;20043;-68
2023/02/22 11:55:57;;;;;;;7.55;2.78;;;19.70;54.20;;;;;;6271027;28;20048;-67
2023/02/22 11:59:22;;;;;;;8.07;2.38;;;19.60;54.30;;;;;;6271142;28;20056;-68
2023/02/22 12:02:32;;;;;;;9.13;2.75;;;19.60;54.40;;;;;;6270917;28;20032;-68
2023/02/22 12:06:00;;;;;;;7.07;2.33;;;19.60;54.40;;;;;;6270783;28;20398;-67
2023/02/22 12:09:26;;;;;;;6.53;2.10;;;19.60;54.50;;;;;;6271103;28;20038;-67
2023/02/22 12:12:38;;;;;;;5.80;2.20;;;19.60;54.50;;;;;;6271225;28;20400;-67
2023/02/22 12:15:50;;;;;;;5.25;2.40;;;19.60;54.50;;;;;;6273330;28;20040;-68
2023/02/22 12:19:10;;;;;;;9.40;2.92;;;19.50;54.40;;;;;;6275490;28;20097;-67
2023/02/22 12:22:16;;;;;;;8.57;2.47;;;19.50;54.30;;;;;;6269292;28;20040;-67
2023/02/22 12:25:21;;;;;;;6.10;2.17;;;19.50;54.30;;;;;;6273565;28;20027;-69
2023/02/22 12:28:29;;;;;;;6.93;2.55;;;19.50;54.20;;;;;;6273750;28;20029;-68
2023/02/22 12:31:48;;;;;;;6.40;1.73;;;19.50;54.50;;;;;;6273091;28;20029;-67
2023/02/22 12:34:58;;;;;;;5.00;2.10;;;19.50;54.40;;;;;;6272721;28;20513;-67
2023/02/22 12:38:03;;;;;;;6.95;2.15;;;19.50;54.40;;;;;;6272673;28;20032;-68
2023/02/22 12:41:30;;;;;;;5.90;2.10;;;19.50;54.40;;;;;;6274170;28;20063;-67
2023/02/22 12:44:38;;;;;;;4.78;1.85;;;19.50;55.20;;;;;;6274091;28;20021;-68
2023/02/22 12:47:52;;;;;;;6.70;2.28;;;19.50;54.60;;;;;;6272580;28;20470;-68
2023/02/22 12:50:58;;;;;;;5.63;2.10;;;19.50;54.60;;;;;;6274189;28;20017;-68
2023/02/22 12:54:11;;;;;;;6.55;1.90;;;19.50;54.60;;;;;;6273554;28;20470;-68
2023/02/22 12:57:20;;;;;;;5.35;1.98;;;19.40;54.50;;;;;;6272242;28;20403;-68
2023/02/22 13:00:40;;;;;;;3.65;1.73;;;19.40;54.60;;;;;;6273862;28;20033;-67
2023/02/22 13:03:43;;;;;;;4.22;1.70;;;19.40;54.60;;;;;;6273399;28;20051;-67
2023/02/22 13:07:10;;;;;;;5.47;1.65;;;19.40;54.60;;;;;;6272853;28;20021;-67
2023/02/22 13:10:27;;;;;;;5.32;1.80;;;19.40;54.60;;;;;;6269544;28;20029;-67
2023/02/22 13:13:43;;;;;;;4.72;1.90;;;19.40;54.60;;;;;;6272024;28;20029;-68
2023/02/22 13:17:19;;;;;;;5.00;1.88;;;19.40;54.70;;;;;;6272705;28;20017;-68
2023/02/22 13:20:38;;;;;;;4.80;1.98;;;19.40;54.70;;;;;;6272538;28;20033;-67
2023/02/22 13:23:51;;;;;;;6.07;2.17;;;19.40;54.70;;;;;;6271931;28;20021;-67
2023/02/22 13:26:58;;;;;;;3.83;1.83;;;19.30;54.60;;;;;;6272265;28;20486;-67
2023/02/22 13:30:02;;;;;;;4.78;2.00;;;19.30;54.60;;;;;;6272913;28;20048;-68
2023/02/22 13:33:42;;;;;;;3.20;1.63;;;19.30;54.60;;;;;;6273239;28;20052;-68
2023/02/22 13:37:16;;;;;;;4.75;1.50;;;19.30;54.50;;;;;;6272702;28;20025;-70
2023/02/22 13:40:28;;;;;;;3.25;1.65;;;19.30;54.50;;;;;;6272861;28;20021;-67
2023/02/22 13:43:44;;;;;;;4.32;1.85;;;19.30;54.60;;;;;;6272772;28;20024;-67
2023/02/22 13:47:03;;;;;;;3.33;1.65;;;19.30;54.60;;;;;;6272219;28;20106;-68
2023/02/22 13:50:42;;;;;;;5.25;1.60;;;19.40;54.70;;;;;;6272435;28;20071;-67
2023/02/22 13:53:59;;;;;;;5.00;1.48;;;19.30;54.60;;;;;;6272168;28;20082;-68
2023/02/22 13:57:02;;;;;;;3.30;1.45;;;19.30;54.60;;;;;;6272048;28;20583;-68
2023/02/22 14:00:15;;;;;;;5.05;2.00;;;19.40;54.70;;;;;;6271012;28;20029;-68
2023/02/22 14:03:41;;;;;;;4.20;1.65;;;19.50;54.60;;;;;;6272185;28;20021;-67
2023/02/22 14:06:42;;;;;;;3.80;1.80;;;19.60;54.30;;;;;;6268502;28;20029;-70
2023/02/22 14:09:50;;;;;;;3.97;1.48;;;19.60;54.30;;;;;;6272146;28;20021;-70
2023/02/22 14:12:51;;;;;;;3.10;1.30;;;19.60;54.40;;;;;;6271369;28;20028;-70
2023/02/22 14:16:03;;;;;;;9.05;1.63;;;19.60;54.50;;;;;;6270381;28;20394;-66
2023/02/22 14:19:14;;;;;;;2.88;1.50;;;19.60;54.40;;;;;;6271207;28;20082;-67
2023/02/22 14:22:26;;;;;;;5.22;1.50;;;19.60;54.30;;;;;;6271603;28;20025;-67
2023/02/22 14:25:30;;;;;;;4.00;1.48;;;19.60;54.30;;;;;;6269870;28;20505;-67
2023/02/22 14:28:36;;;;;;;3.60;1.38;;;19.60;54.30;;;;;;6271587;28;20530;-66
2023/02/22 14:31:42;;;;;;;3.58;1.30;;;19.60;54.30;;;;;;6294339;28;20469;-69
2023/02/22 14:34:50;;;;;;;;;;;19.60;54.30;;;;;;6290293;28;20028;-67
2023/02/22 14:37:54;;;;;;;7.22;1.77;;;19.60;54.30;;;;;;6270559;28;19991;-67
2023/02/22 14:40:57;;;;;;;2.03;1.25;;;19.60;54.30;;;;;;6271256;28;20025;-67
2023/02/22 14:44:02;;;;;;;3.45;1.55;;;19.60;54.30;;;;;;6271327;28;20152;-67
2023/02/22 14:47:06;;;;;;;2.03;1.10;;;19.70;54.30;;;;;;6269431;28;20494;-67
2023/02/22 14:50:25;;;;;;;3.38;1.65;;;19.70;54.30;;;;;;6269987;28;20058;-66
2023/02/22 14:53:48;;;;;;;4.15;1.60;;;19.70;54.30;;;;;;6268906;28;20481;-67
2023/02/22 14:57:20;;;;;;;4.97;1.70;;;19.70;54.30;;;;;;6268866;28;20021;-67
2023/02/22 15:00:47;;;;;;;5.80;1.70;;;19.70;54.30;;;;;;6269042;28;20378;-67
2023/02/22 15:03:48;;;;;;;3.28;1.40;;;19.70;54.30;;;;;;6270433;28;20043;-66
2023/02/22 15:06:49;;;;;;;3.15;1.30;;;19.70;54.20;;;;;;6270206;28;20477;-67
2023/02/22 15:09:50;;;;;;;2.95;1.35;;;19.70;54.20;;;;;;6269054;28;20052;-67
2023/02/22 15:13:09;;;;;;;6.13;1.70;;;19.70;54.20;;;;;;6268987;28;20485;-66
2023/02/22 15:16:14;;;;;;;3.78;1.50;;;19.70;54.20;;;;;;6263828;28;20032;-66
2023/02/22 15:19:23;;;;;;;2.83;1.30;;;19.70;54.20;;;;;;6245258;28;20045;-67
2023/02/22 15:22:31;;;;;;;3.35;1.75;;;19.70;54.20;;;;;;6267143;28;20032;-67
2023/02/22 15:25:36;;;;;;;3.28;1.50;;;19.70;54.20;;;;;;6269502;28;20025;-66
2023/02/22 15:28:37;;;;;;;3.42;1.52;;;19.70;54.20;;;;;;6269612;28;20052;-66
2023/02/22 15:31:43;;;;;;;4.03;1.92;;;19.70;54.10;;;;;;6269494;28;20501;-65
2023/02/22 15:34:44;;;;;;;6.70;1.80;;;19.70;54.20;;;;;;6268857;28;20025;-66
2023/02/22 15:37:56;;;;;;;3.40;1.50;;;19.70;54.20;;;;;;6270488;28;20024;-66
2023/02/22 15:41:04;;;;;;;2.22;1.38;;;19.70;54.10;;;;;;6268933;28;20051;-66
2023/02/22 15:44:10;;;;;;;4.65;1.83;;;19.70;54.10;;;;;;6270294;28;20021;-66
2023/02/22 15:47:20;;;;;;;2.15;1.52;;;19.70;54.10;;;;;;6270281;28;20021;-65
2023/02/22 15:50:28;;;;;;;3.35;1.65;;;19.70;54.00;;;;;;6273513;28;20104;-66
2023/02/22 15:53:40;;;;;;;4.32;1.45;;;19.70;54.10;;;;;;6275686;28;20382;-66
2023/02/22 15:56:53;;;;;;;4.28;1.70;;;19.70;54.00;;;;;;6275125;28;20393;-66
2023/02/22 15:59:56;;;;;;;5.35;1.88;;;19.70;54.00;;;;;;6275153;28;20219;-66
2023/02/22 16:02:57;;;;;;;4.57;1.83;;;19.70;54.10;;;;;;6275080;28;20028;-67
2023/02/22 16:05:58;;;;;;;3.28;1.50;;;19.70;54.00;;;;;;6274599;28;20025;-66
2023/02/22 16:09:11;;;;;;;4.13;1.98;;;19.70;54.00;;;;;;6274977;28;20025;-67
2023/02/22 16:12:21;;;;;;;6.53;2.03;;;19.70;54.00;;;;;;6273746;28;20063;-67